sensor_id;sensor_type;location;lat;lon;timestamp;P1;durP1;ratioP1;P2;durP2;ratioP2
21297;SDS011;10808;48.010;11.326;2023-01-16T00:01:00;2.60;;;1.20;;
21297;SDS011;10808;48.010;11.326;2023-01-16T00:03:27;2.60;;;0.80;;
21297;SDS011;10808;48.010;11.326;2023-01-16T00:05:53;1.97;;;1.00;;
21297;SDS011;10808;48.010;11.326;2023-01-16T00:08:19;2.50;;;1.08;;
21297;SDS011;10808;48.010;11.326;2023-01-16T00:10:45;2.77;;;1.40;;
21297;SDS011;10808;48.010;11.326;2023-01-16T00:13:12;1.75;;;0.70;;
21297;SDS011;10808;48.010;11.326;2023-01-16T00:15:42;1.23;;;0.82;;
21297;SDS011;10808;48.010;11.326;2023-01-16T00:18:09;1.03;;;0.80;;
21297;SDS011;10808;48.010;11.326;2023-01-16T00:20:35;2.15;;;1.10;;
21297;SDS011;10808;48.010;11.326;2023-01-16T00:23:01;2.03;;;0.90;;
21297;SDS011;10808;48.010;11.326;2023-01-16T00:25:27;0.90;;;0.80;;
21297;SDS011;10808;48.010;11.326;2023-01-16T00:27:53;2.42;;;1.10;;
21297;SDS011;10808;48.010;11.326;2023-01-16T00:30:19;2.58;;;1.00;;
21297;SDS011;10808;48.010;11.326;2023-01-16T00:32:45;2.45;;;1.13;;
21297;SDS011;10808;48.010;11.326;2023-01-16T00:35:12;1.67;;;1.00;;
21297;SDS011;10808;48.010;11.326;2023-01-16T00:37:38;2.55;;;0.95;;
21297;SDS011;10808;48.010;11.326;2023-01-16T00:40:04;0.90;;;0.80;;
21297;SDS011;10808;48.010;11.326;2023-01-16T00:42:30;0.82;;;0.63;;
21297;SDS011;10808;48.010;11.326;2023-01-16T00:44:56;0.88;;;0.80;;
21297;SDS011;10808;48.010;11.326;2023-01-16T00:47:22;1.45;;;0.90;;
21297;SDS011;10808;48.010;11.326;2023-01-16T00:49:48;0.93;;;0.73;;
21297;SDS011;10808;48.010;11.326;2023-01-16T00:52:14;1.23;;;0.87;;
21297;SDS011;10808;48.010;11.326;2023-01-16T00:54:40;1.45;;;0.90;;
21297;SDS011;10808;48.010;11.326;2023-01-16T00:57:06;2.05;;;0.82;;
21297;SDS011;10808;48.010;11.326;2023-01-16T00:59:32;1.17;;;0.80;;
21297;SDS011;10808;48.010;11.326;2023-01-16T01:01:58;0.93;;;0.73;;
21297;SDS011;10808;48.010;11.326;2023-01-16T01:04:24;1.30;;;0.90;;
21297;SDS011;10808;48.010;11.326;2023-01-16T01:06:51;1.42;;;0.85;;
21297;SDS011;10808;48.010;11.326;2023-01-16T01:09:17;2.20;;;0.82;;
21297;SDS011;10808;48.010;11.326;2023-01-16T01:11:43;1.13;;;0.80;;
21297;SDS011;10808;48.010;11.326;2023-01-16T01:14:09;0.77;;;0.73;;
21297;SDS011;10808;48.010;11.326;2023-01-16T01:16:35;1.25;;;0.80;;
21297;SDS011;10808;48.010;11.326;2023-01-16T01:19:01;1.38;;;0.82;;
21297;SDS011;10808;48.010;11.326;2023-01-16T01:21:27;1.08;;;0.68;;
21297;SDS011;10808;48.010;11.326;2023-01-16T01:23:54;1.30;;;0.83;;
21297;SDS011;10808;48.010;11.326;2023-01-16T01:26:21;1.70;;;0.90;;
21297;SDS011;10808;48.010;11.326;2023-01-16T01:28:47;1.08;;;0.70;;
21297;SDS011;10808;48.010;11.326;2023-01-16T01:31:13;1.42;;;0.90;;
21297;SDS011;10808;48.010;11.326;2023-01-16T01:33:39;1.05;;;0.90;;
21297;SDS011;10808;48.010;11.326;2023-01-16T01:36:06;0.90;;;0.70;;
21297;SDS011;10808;48.010;11.326;2023-01-16T01:38:33;2.17;;;0.80;;
21297;SDS011;10808;48.010;11.326;2023-01-16T01:40:59;1.80;;;0.85;;
21297;SDS011;10808;48.010;11.326;2023-01-16T01:43:39;1.63;;;0.80;;
21297;SDS011;10808;48.010;11.326;2023-01-16T01:46:21;1.07;;;0.70;;
21297;SDS011;10808;48.010;11.326;2023-01-16T01:49:06;2.05;;;0.73;;
21297;SDS011;10808;48.010;11.326;2023-01-16T01:51:41;1.30;;;0.80;;
21297;SDS011;10808;48.010;11.326;2023-01-16T01:54:10;1.00;;;0.90;;
21297;SDS011;10808;48.010;11.326;2023-01-16T01:56:47;1.30;;;0.80;;
21297;SDS011;10808;48.010;11.326;2023-01-16T01:59:22;1.60;;;0.80;;
21297;SDS011;10808;48.010;11.326;2023-01-16T02:01:53;1.35;;;0.95;;
21297;SDS011;10808;48.010;11.326;2023-01-16T02:04:24;1.13;;;0.70;;
21297;SDS011;10808;48.010;11.326;2023-01-16T02:06:55;0.90;;;0.70;;
21297;SDS011;10808;48.010;11.326;2023-01-16T02:09:23;1.00;;;0.82;;
21297;SDS011;10808;48.010;11.326;2023-01-16T02:11:52;0.85;;;0.80;;
21297;SDS011;10808;48.010;11.326;2023-01-16T02:14:19;1.55;;;0.90;;
21297;SDS011;10808;48.010;11.326;2023-01-16T02:16:48;1.17;;;0.80;;
21297;SDS011;10808;48.010;11.326;2023-01-16T02:31:26;0.90;;;0.80;;
21297;SDS011;10808;48.010;11.326;2023-01-16T02:47:29;0.80;;;0.70;;
21297;SDS011;10808;48.010;11.326;2023-01-16T02:50:14;1.10;;;0.80;;
21297;SDS011;10808;48.010;11.326;2023-01-16T02:52:56;0.95;;;0.77;;
21297;SDS011;10808;48.010;11.326;2023-01-16T02:55:42;1.35;;;0.80;;
21297;SDS011;10808;48.010;11.326;2023-01-16T02:58:14;2.30;;;0.80;;
21297;SDS011;10808;48.010;11.326;2023-01-16T03:00:53;2.13;;;0.93;;
21297;SDS011;10808;48.010;11.326;2023-01-16T03:11:59;1.08;;;0.80;;
21297;SDS011;10808;48.010;11.326;2023-01-16T03:14:53;1.40;;;0.90;;
21297;SDS011;10808;48.010;11.326;2023-01-16T03:20:15;1.08;;;0.98;;
21297;SDS011;10808;48.010;11.326;2023-01-16T03:22:54;1.60;;;0.80;;
21297;SDS011;10808;48.010;11.326;2023-01-16T03:25:43;1.40;;;0.90;;
21297;SDS011;10808;48.010;11.326;2023-01-16T03:31:02;1.15;;;0.82;;
21297;SDS011;10808;48.010;11.326;2023-01-16T03:33:37;1.23;;;0.80;;
21297;SDS011;10808;48.010;11.326;2023-01-16T03:36:11;1.20;;;0.88;;
21297;SDS011;10808;48.010;11.326;2023-01-16T03:39:00;0.82;;;0.80;;
21297;SDS011;10808;48.010;11.326;2023-01-16T03:41:29;1.25;;;0.90;;
21297;SDS011;10808;48.010;11.326;2023-01-16T03:44:01;0.80;;;0.80;;
21297;SDS011;10808;48.010;11.326;2023-01-16T03:46:37;1.00;;;0.90;;
21297;SDS011;10808;48.010;11.326;2023-01-16T03:49:09;1.17;;;1.00;;
21297;SDS011;10808;48.010;11.326;2023-01-16T03:51:43;1.33;;;0.93;;
21297;SDS011;10808;48.010;11.326;2023-01-16T03:54:21;1.13;;;0.90;;
21297;SDS011;10808;48.010;11.326;2023-01-16T03:57:13;1.00;;;0.90;;
21297;SDS011;10808;48.010;11.326;2023-01-16T04:00:03;1.77;;;1.10;;
21297;SDS011;10808;48.010;11.326;2023-01-16T04:02:30;0.90;;;0.80;;
21297;SDS011;10808;48.010;11.326;2023-01-16T04:05:26;0.90;;;0.90;;
21297;SDS011;10808;48.010;11.326;2023-01-16T04:07:56;2.63;;;1.00;;
21297;SDS011;10808;48.010;11.326;2023-01-16T04:10:36;2.67;;;1.30;;
21297;SDS011;10808;48.010;11.326;2023-01-16T04:13:06;1.37;;;0.87;;
21297;SDS011;10808;48.010;11.326;2023-01-16T04:15:35;2.38;;;1.00;;
21297;SDS011;10808;48.010;11.326;2023-01-16T04:18:05;1.60;;;0.90;;
21297;SDS011;10808;48.010;11.326;2023-01-16T04:20:31;1.00;;;0.90;;
21297;SDS011;10808;48.010;11.326;2023-01-16T04:22:59;1.73;;;1.00;;
21297;SDS011;10808;48.010;11.326;2023-01-16T04:25:25;1.52;;;0.90;;
21297;SDS011;10808;48.010;11.326;2023-01-16T04:27:51;1.73;;;1.00;;
21297;SDS011;10808;48.010;11.326;2023-01-16T04:30:17;0.82;;;0.82;;
21297;SDS011;10808;48.010;11.326;2023-01-16T04:32:43;1.38;;;0.93;;
21297;SDS011;10808;48.010;11.326;2023-01-16T04:35:09;1.20;;;1.00;;
21297;SDS011;10808;48.010;11.326;2023-01-16T04:37:36;1.50;;;0.95;;
21297;SDS011;10808;48.010;11.326;2023-01-16T04:40:02;2.53;;;0.95;;
21297;SDS011;10808;48.010;11.326;2023-01-16T04:42:29;1.83;;;1.00;;
21297;SDS011;10808;48.010;11.326;2023-01-16T04:44:55;1.55;;;0.98;;
21297;SDS011;10808;48.010;11.326;2023-01-16T04:47:21;2.55;;;0.82;;
21297;SDS011;10808;48.010;11.326;2023-01-16T04:49:47;1.90;;;1.00;;
21297;SDS011;10808;48.010;11.326;2023-01-16T04:52:13;1.77;;;0.90;;
21297;SDS011;10808;48.010;11.326;2023-01-16T04:54:39;1.10;;;1.00;;
21297;SDS011;10808;48.010;11.326;2023-01-16T04:57:05;1.10;;;0.90;;
21297;SDS011;10808;48.010;11.326;2023-01-16T04:59:31;1.60;;;0.90;;
21297;SDS011;10808;48.010;11.326;2023-01-16T05:01:57;1.42;;;1.00;;
21297;SDS011;10808;48.010;11.326;2023-01-16T05:04:23;1.42;;;1.10;;
21297;SDS011;10808;48.010;11.326;2023-01-16T05:06:49;1.08;;;0.80;;
21297;SDS011;10808;48.010;11.326;2023-01-16T05:09:15;1.77;;;1.00;;
21297;SDS011;10808;48.010;11.326;2023-01-16T05:11:41;1.08;;;0.90;;
21297;SDS011;10808;48.010;11.326;2023-01-16T05:14:07;2.47;;;0.98;;
21297;SDS011;10808;48.010;11.326;2023-01-16T05:16:36;2.50;;;1.10;;
21297;SDS011;10808;48.010;11.326;2023-01-16T05:19:03;1.38;;;0.80;;
21297;SDS011;10808;48.010;11.326;2023-01-16T05:21:30;2.67;;;1.00;;
21297;SDS011;10808;48.010;11.326;2023-01-16T05:23:56;1.05;;;0.90;;
21297;SDS011;10808;48.010;11.326;2023-01-16T05:26:22;1.70;;;1.00;;
21297;SDS011;10808;48.010;11.326;2023-01-16T05:28:49;2.13;;;0.93;;
21297;SDS011;10808;48.010;11.326;2023-01-16T05:31:15;1.70;;;1.00;;
21297;SDS011;10808;48.010;11.326;2023-01-16T05:33:41;1.27;;;0.80;;
21297;SDS011;10808;48.010;11.326;2023-01-16T05:36:07;1.38;;;1.00;;
21297;SDS011;10808;48.010;11.326;2023-01-16T05:38:34;1.25;;;0.90;;
21297;SDS011;10808;48.010;11.326;2023-01-16T05:41:00;1.40;;;0.80;;
21297;SDS011;10808;48.010;11.326;2023-01-16T05:43:26;1.70;;;0.93;;
21297;SDS011;10808;48.010;11.326;2023-01-16T05:45:52;0.77;;;0.70;;
21297;SDS011;10808;48.010;11.326;2023-01-16T05:48:18;1.30;;;0.80;;
21297;SDS011;10808;48.010;11.326;2023-01-16T05:50:44;1.73;;;0.93;;
21297;SDS011;10808;48.010;11.326;2023-01-16T05:53:10;1.58;;;0.90;;
21297;SDS011;10808;48.010;11.326;2023-01-16T05:55:39;1.83;;;1.10;;
21297;SDS011;10808;48.010;11.326;2023-01-16T05:58:08;2.53;;;1.05;;
21297;SDS011;10808;48.010;11.326;2023-01-16T06:00:36;0.80;;;0.70;;
21297;SDS011;10808;48.010;11.326;2023-01-16T06:03:03;1.00;;;0.80;;
21297;SDS011;10808;48.010;11.326;2023-01-16T06:05:29;0.90;;;0.70;;
21297;SDS011;10808;48.010;11.326;2023-01-16T06:07:55;2.35;;;0.90;;
21297;SDS011;10808;48.010;11.326;2023-01-16T06:10:22;2.27;;;0.80;;
21297;SDS011;10808;48.010;11.326;2023-01-16T06:12:48;1.35;;;0.90;;
21297;SDS011;10808;48.010;11.326;2023-01-16T06:15:14;1.25;;;0.88;;
21297;SDS011;10808;48.010;11.326;2023-01-16T06:17:40;1.77;;;1.20;;
21297;SDS011;10808;48.010;11.326;2023-01-16T06:20:07;3.97;;;2.22;;
21297;SDS011;10808;48.010;11.326;2023-01-16T06:22:34;2.17;;;1.48;;
21297;SDS011;10808;48.010;11.326;2023-01-16T06:25:00;2.13;;;1.20;;
21297;SDS011;10808;48.010;11.326;2023-01-16T06:27:26;2.63;;;1.48;;
21297;SDS011;10808;48.010;11.326;2023-01-16T06:29:52;2.17;;;1.50;;
21297;SDS011;10808;48.010;11.326;2023-01-16T06:32:18;1.75;;;1.35;;
21297;SDS011;10808;48.010;11.326;2023-01-16T06:34:44;1.65;;;1.55;;
21297;SDS011;10808;48.010;11.326;2023-01-16T06:37:10;1.90;;;1.30;;
21297;SDS011;10808;48.010;11.326;2023-01-16T06:39:37;2.05;;;1.40;;
21297;SDS011;10808;48.010;11.326;2023-01-16T06:42:03;1.40;;;1.30;;
21297;SDS011;10808;48.010;11.326;2023-01-16T06:44:33;3.22;;;1.73;;
21297;SDS011;10808;48.010;11.326;2023-01-16T06:47:00;2.60;;;1.60;;
21297;SDS011;10808;48.010;11.326;2023-01-16T06:49:26;3.10;;;1.80;;
21297;SDS011;10808;48.010;11.326;2023-01-16T06:51:52;2.75;;;1.58;;
21297;SDS011;10808;48.010;11.326;2023-01-16T06:54:19;1.85;;;1.50;;
21297;SDS011;10808;48.010;11.326;2023-01-16T06:56:45;2.58;;;1.50;;
21297;SDS011;10808;48.010;11.326;2023-01-16T06:59:11;1.83;;;1.43;;
21297;SDS011;10808;48.010;11.326;2023-01-16T07:01:37;3.05;;;1.60;;
21297;SDS011;10808;48.010;11.326;2023-01-16T07:04:03;2.33;;;1.48;;
21297;SDS011;10808;48.010;11.326;2023-01-16T07:06:29;3.97;;;1.33;;
21297;SDS011;10808;48.010;11.326;2023-01-16T07:08:55;3.58;;;1.40;;
21297;SDS011;10808;48.010;11.326;2023-01-16T07:11:21;2.78;;;1.45;;
21297;SDS011;10808;48.010;11.326;2023-01-16T07:13:47;2.35;;;1.08;;
21297;SDS011;10808;48.010;11.326;2023-01-16T07:16:13;2.72;;;1.20;;
21297;SDS011;10808;48.010;11.326;2023-01-16T07:18:59;2.65;;;1.20;;
21297;SDS011;10808;48.010;11.326;2023-01-16T07:21:45;4.32;;;1.50;;
21297;SDS011;10808;48.010;11.326;2023-01-16T07:24:32;2.40;;;1.40;;
21297;SDS011;10808;48.010;11.326;2023-01-16T07:27:02;1.75;;;1.30;;
21297;SDS011;10808;48.010;11.326;2023-01-16T07:29:30;2.58;;;1.40;;
21297;SDS011;10808;48.010;11.326;2023-01-16T07:31:59;2.13;;;1.60;;
21297;SDS011;10808;48.010;11.326;2023-01-16T07:34:27;3.47;;;1.42;;
21297;SDS011;10808;48.010;11.326;2023-01-16T07:36:53;2.83;;;1.63;;
21297;SDS011;10808;48.010;11.326;2023-01-16T07:39:19;2.67;;;1.67;;
21297;SDS011;10808;48.010;11.326;2023-01-16T07:41:45;2.83;;;1.70;;
21297;SDS011;10808;48.010;11.326;2023-01-16T07:44:13;5.20;;;2.47;;
21297;SDS011;10808;48.010;11.326;2023-01-16T07:46:39;3.40;;;2.30;;
21297;SDS011;10808;48.010;11.326;2023-01-16T07:49:05;5.15;;;2.90;;
21297;SDS011;10808;48.010;11.326;2023-01-16T07:51:31;2.93;;;2.20;;
21297;SDS011;10808;48.010;11.326;2023-01-16T07:53:57;3.88;;;2.60;;
21297;SDS011;10808;48.010;11.326;2023-01-16T07:56:23;4.68;;;2.50;;
21297;SDS011;10808;48.010;11.326;2023-01-16T07:58:49;3.63;;;2.57;;
21297;SDS011;10808;48.010;11.326;2023-01-16T08:01:19;5.28;;;2.92;;
21297;SDS011;10808;48.010;11.326;2023-01-16T08:03:45;6.72;;;3.83;;
21297;SDS011;10808;48.010;11.326;2023-01-16T08:06:11;6.75;;;4.50;;
21297;SDS011;10808;48.010;11.326;2023-01-16T08:08:37;5.90;;;3.30;;
21297;SDS011;10808;48.010;11.326;2023-01-16T08:11:03;5.20;;;3.67;;
21297;SDS011;10808;48.010;11.326;2023-01-16T08:13:49;4.65;;;3.47;;
21297;SDS011;10808;48.010;11.326;2023-01-16T08:16:15;4.05;;;2.90;;
21297;SDS011;10808;48.010;11.326;2023-01-16T08:18:41;3.47;;;2.85;;
21297;SDS011;10808;48.010;11.326;2023-01-16T08:21:07;4.85;;;2.95;;
21297;SDS011;10808;48.010;11.326;2023-01-16T08:23:33;6.03;;;2.70;;
21297;SDS011;10808;48.010;11.326;2023-01-16T08:25:59;4.22;;;2.60;;
21297;SDS011;10808;48.010;11.326;2023-01-16T08:28:26;2.17;;;1.70;;
21297;SDS011;10808;48.010;11.326;2023-01-16T08:30:52;1.80;;;1.20;;
21297;SDS011;10808;48.010;11.326;2023-01-16T08:33:18;1.70;;;1.23;;
21297;SDS011;10808;48.010;11.326;2023-01-16T08:35:44;1.83;;;1.20;;
21297;SDS011;10808;48.010;11.326;2023-01-16T08:38:10;1.90;;;1.23;;
21297;SDS011;10808;48.010;11.326;2023-01-16T08:40:36;1.42;;;0.98;;
21297;SDS011;10808;48.010;11.326;2023-01-16T08:46:24;1.50;;;1.33;;
21297;SDS011;10808;48.010;11.326;2023-01-16T08:49:12;1.10;;;0.95;;
21297;SDS011;10808;48.010;11.326;2023-01-16T08:51:58;1.52;;;0.90;;
21297;SDS011;10808;48.010;11.326;2023-01-16T08:54:25;2.10;;;1.30;;
21297;SDS011;10808;48.010;11.326;2023-01-16T08:56:51;1.40;;;1.13;;
21297;SDS011;10808;48.010;11.326;2023-01-16T08:59:17;1.20;;;1.10;;
21297;SDS011;10808;48.010;11.326;2023-01-16T09:01:43;1.50;;;1.30;;
21297;SDS011;10808;48.010;11.326;2023-01-16T09:04:09;2.00;;;1.10;;
21297;SDS011;10808;48.010;11.326;2023-01-16T09:06:35;2.15;;;1.30;;
21297;SDS011;10808;48.010;11.326;2023-01-16T09:09:03;1.50;;;1.00;;
21297;SDS011;10808;48.010;11.326;2023-01-16T09:11:31;1.50;;;1.10;;
21297;SDS011;10808;48.010;11.326;2023-01-16T09:14:16;1.50;;;1.10;;
21297;SDS011;10808;48.010;11.326;2023-01-16T09:16:42;1.13;;;0.90;;
21297;SDS011;10808;48.010;11.326;2023-01-16T09:19:08;1.00;;;0.90;;
21297;SDS011;10808;48.010;11.326;2023-01-16T09:21:34;0.80;;;0.80;;
21297;SDS011;10808;48.010;11.326;2023-01-16T09:24:00;0.90;;;0.80;;
21297;SDS011;10808;48.010;11.326;2023-01-16T09:26:28;1.65;;;0.85;;
21297;SDS011;10808;48.010;11.326;2023-01-16T09:28:54;1.63;;;0.90;;
21297;SDS011;10808;48.010;11.326;2023-01-16T09:31:20;0.70;;;0.70;;
21297;SDS011;10808;48.010;11.326;2023-01-16T09:33:46;1.40;;;0.93;;
21297;SDS011;10808;48.010;11.326;2023-01-16T09:36:14;0.90;;;0.80;;
21297;SDS011;10808;48.010;11.326;2023-01-16T09:38:40;2.30;;;0.70;;
21297;SDS011;10808;48.010;11.326;2023-01-16T09:41:08;1.13;;;0.90;;
21297;SDS011;10808;48.010;11.326;2023-01-16T09:44:04;0.88;;;0.80;;
21297;SDS011;10808;48.010;11.326;2023-01-16T09:46:35;2.77;;;0.93;;
21297;SDS011;10808;48.010;11.326;2023-01-16T09:49:16;1.48;;;1.10;;
21297;SDS011;10808;48.010;11.326;2023-01-16T09:52:03;1.08;;;0.80;;
21297;SDS011;10808;48.010;11.326;2023-01-16T09:54:55;1.92;;;1.00;;
21297;SDS011;10808;48.010;11.326;2023-01-16T09:57:45;1.80;;;0.90;;
21297;SDS011;10808;48.010;11.326;2023-01-16T10:00:31;1.20;;;0.90;;
21297;SDS011;10808;48.010;11.326;2023-01-16T10:02:59;1.80;;;0.90;;
21297;SDS011;10808;48.010;11.326;2023-01-16T10:05:28;1.80;;;0.80;;
21297;SDS011;10808;48.010;11.326;2023-01-16T10:08:12;1.75;;;1.10;;
21297;SDS011;10808;48.010;11.326;2023-01-16T10:10:51;1.63;;;1.20;;
21297;SDS011;10808;48.010;11.326;2023-01-16T10:15:58;1.90;;;0.93;;
21297;SDS011;10808;48.010;11.326;2023-01-16T10:21:55;3.65;;;1.00;;
21297;SDS011;10808;48.010;11.326;2023-01-16T10:27:42;1.60;;;0.80;;
21297;SDS011;10808;48.010;11.326;2023-01-16T10:32:52;3.40;;;1.02;;
21297;SDS011;10808;48.010;11.326;2023-01-16T10:35:33;1.63;;;0.70;;
21297;SDS011;10808;48.010;11.326;2023-01-16T10:38:25;1.05;;;0.70;;
21297;SDS011;10808;48.010;11.326;2023-01-16T10:41:10;1.00;;;0.80;;
21297;SDS011;10808;48.010;11.326;2023-01-16T10:44:00;1.33;;;0.80;;
21297;SDS011;10808;48.010;11.326;2023-01-16T10:46:48;0.70;;;0.65;;
21297;SDS011;10808;48.010;11.326;2023-01-16T10:49:34;0.80;;;0.80;;
21297;SDS011;10808;48.010;11.326;2023-01-16T10:52:01;0.90;;;0.80;;
21297;SDS011;10808;48.010;11.326;2023-01-16T10:54:29;0.80;;;0.80;;
21297;SDS011;10808;48.010;11.326;2023-01-16T10:56:55;1.88;;;0.88;;
21297;SDS011;10808;48.010;11.326;2023-01-16T10:59:26;0.95;;;0.80;;
21297;SDS011;10808;48.010;11.326;2023-01-16T11:01:53;1.65;;;0.80;;
21297;SDS011;10808;48.010;11.326;2023-01-16T11:04:23;0.80;;;0.60;;
21297;SDS011;10808;48.010;11.326;2023-01-16T11:07:13;0.95;;;0.70;;
21297;SDS011;10808;48.010;11.326;2023-01-16T11:09:44;1.23;;;0.60;;
21297;SDS011;10808;48.010;11.326;2023-01-16T11:12:12;1.13;;;0.90;;
21297;SDS011;10808;48.010;11.326;2023-01-16T11:15:02;1.10;;;0.82;;
21297;SDS011;10808;48.010;11.326;2023-01-16T11:17:54;1.10;;;0.80;;
21297;SDS011;10808;48.010;11.326;2023-01-16T11:20:38;0.70;;;0.70;;
21297;SDS011;10808;48.010;11.326;2023-01-16T11:23:15;0.67;;;0.60;;
21297;SDS011;10808;48.010;11.326;2023-01-16T11:25:46;1.65;;;0.85;;
21297;SDS011;10808;48.010;11.326;2023-01-16T11:28:22;1.30;;;0.70;;
21297;SDS011;10808;48.010;11.326;2023-01-16T11:30:52;0.80;;;0.70;;
21297;SDS011;10808;48.010;11.326;2023-01-16T11:33:26;1.10;;;0.70;;
21297;SDS011;10808;48.010;11.326;2023-01-16T11:35:58;0.77;;;0.70;;
21297;SDS011;10808;48.010;11.326;2023-01-16T11:38:27;1.60;;;0.90;;
21297;SDS011;10808;48.010;11.326;2023-01-16T11:40:56;0.88;;;0.80;;
21297;SDS011;10808;48.010;11.326;2023-01-16T11:43:24;0.67;;;0.60;;
21297;SDS011;10808;48.010;11.326;2023-01-16T11:49:00;1.25;;;0.90;;
21297;SDS011;10808;48.010;11.326;2023-01-16T11:51:39;4.22;;;0.90;;
21297;SDS011;10808;48.010;11.326;2023-01-16T11:54:10;1.00;;;0.80;;
21297;SDS011;10808;48.010;11.326;2023-01-16T11:56:49;0.68;;;0.60;;
21297;SDS011;10808;48.010;11.326;2023-01-16T11:59:44;1.23;;;0.90;;
21297;SDS011;10808;48.010;11.326;2023-01-16T12:11:24;1.08;;;0.80;;
21297;SDS011;10808;48.010;11.326;2023-01-16T12:16:57;1.00;;;0.73;;
21297;SDS011;10808;48.010;11.326;2023-01-16T12:19:51;2.20;;;0.80;;
21297;SDS011;10808;48.010;11.326;2023-01-16T12:31:04;0.85;;;0.80;;
21297;SDS011;10808;48.010;11.326;2023-01-16T12:34:00;2.38;;;0.80;;
21297;SDS011;10808;48.010;11.326;2023-01-16T12:39:43;1.33;;;0.80;;
21297;SDS011;10808;48.010;11.326;2023-01-16T12:45:52;1.30;;;0.90;;
21297;SDS011;10808;48.010;11.326;2023-01-16T12:48:37;1.60;;;0.90;;
21297;SDS011;10808;48.010;11.326;2023-01-16T12:54:30;1.10;;;0.98;;
21297;SDS011;10808;48.010;11.326;2023-01-16T13:00:02;1.40;;;1.10;;
21297;SDS011;10808;48.010;11.326;2023-01-16T13:05:50;1.30;;;1.00;;
21297;SDS011;10808;48.010;11.326;2023-01-16T13:08:33;1.13;;;0.90;;
21297;SDS011;10808;48.010;11.326;2023-01-16T13:11:06;1.38;;;0.80;;
21297;SDS011;10808;48.010;11.326;2023-01-16T13:13:57;1.10;;;0.90;;
21297;SDS011;10808;48.010;11.326;2023-01-16T13:19:13;1.40;;;0.90;;
21297;SDS011;10808;48.010;11.326;2023-01-16T13:21:51;0.70;;;0.70;;
21297;SDS011;10808;48.010;11.326;2023-01-16T13:24:30;2.63;;;0.93;;
21297;SDS011;10808;48.010;11.326;2023-01-16T13:27:02;1.38;;;1.10;;
21297;SDS011;10808;48.010;11.326;2023-01-16T13:29:35;2.05;;;1.05;;
21297;SDS011;10808;48.010;11.326;2023-01-16T13:32:11;2.28;;;0.95;;
21297;SDS011;10808;48.010;11.326;2023-01-16T13:34:52;2.10;;;1.10;;
21297;SDS011;10808;48.010;11.326;2023-01-16T13:37:44;1.90;;;1.02;;
21297;SDS011;10808;48.010;11.326;2023-01-16T13:40:23;1.88;;;0.82;;
21297;SDS011;10808;48.010;11.326;2023-01-16T13:43:10;2.13;;;1.60;;
21297;SDS011;10808;48.010;11.326;2023-01-16T13:46:01;4.88;;;3.20;;
21297;SDS011;10808;48.010;11.326;2023-01-16T13:48:29;6.97;;;3.35;;
21297;SDS011;10808;48.010;11.326;2023-01-16T13:50:59;3.50;;;2.00;;
21297;SDS011;10808;48.010;11.326;2023-01-16T13:53:28;1.80;;;1.27;;
21297;SDS011;10808;48.010;11.326;2023-01-16T13:56:03;2.65;;;1.08;;
21297;SDS011;10808;48.010;11.326;2023-01-16T13:58:41;3.50;;;1.20;;
21297;SDS011;10808;48.010;11.326;2023-01-16T14:01:30;1.63;;;1.40;;
21297;SDS011;10808;48.010;11.326;2023-01-16T14:06:52;1.50;;;1.00;;
21297;SDS011;10808;48.010;11.326;2023-01-16T14:09:58;2.92;;;1.00;;
21297;SDS011;10808;48.010;11.326;2023-01-16T14:13:12;1.30;;;1.02;;
21297;SDS011;10808;48.010;11.326;2023-01-16T14:21:10;1.85;;;1.30;;
21297;SDS011;10808;48.010;11.326;2023-01-16T14:23:45;2.30;;;1.20;;
21297;SDS011;10808;48.010;11.326;2023-01-16T14:26:33;2.95;;;1.15;;
21297;SDS011;10808;48.010;11.326;2023-01-16T14:29:05;1.63;;;1.10;;
21297;SDS011;10808;48.010;11.326;2023-01-16T14:32:05;2.60;;;1.33;;
21297;SDS011;10808;48.010;11.326;2023-01-16T14:34:46;2.92;;;1.27;;
21297;SDS011;10808;48.010;11.326;2023-01-16T14:37:23;1.85;;;1.30;;
21297;SDS011;10808;48.010;11.326;2023-01-16T14:42:36;2.05;;;1.10;;
21297;SDS011;10808;48.010;11.326;2023-01-16T14:45:31;2.95;;;1.70;;
21297;SDS011;10808;48.010;11.326;2023-01-16T14:56:43;3.85;;;1.63;;
21297;SDS011;10808;48.010;11.326;2023-01-16T14:59:14;1.83;;;1.17;;
21297;SDS011;10808;48.010;11.326;2023-01-16T15:01:47;2.33;;;1.17;;
21297;SDS011;10808;48.010;11.326;2023-01-16T15:04:40;2.08;;;1.10;;
21297;SDS011;10808;48.010;11.326;2023-01-16T15:07:18;3.27;;;1.40;;
21297;SDS011;10808;48.010;11.326;2023-01-16T15:09:50;4.03;;;1.60;;
21297;SDS011;10808;48.010;11.326;2023-01-16T15:12:17;4.07;;;1.70;;
21297;SDS011;10808;48.010;11.326;2023-01-16T15:14:53;7.35;;;2.90;;
21297;SDS011;10808;48.010;11.326;2023-01-16T15:17:26;4.50;;;1.87;;
21297;SDS011;10808;48.010;11.326;2023-01-16T15:20:19;2.95;;;1.50;;
21297;SDS011;10808;48.010;11.326;2023-01-16T15:23:21;4.60;;;1.67;;
21297;SDS011;10808;48.010;11.326;2023-01-16T15:34:21;5.57;;;2.00;;
21297;SDS011;10808;48.010;11.326;2023-01-16T15:42:30;9.10;;;2.50;;
21297;SDS011;10808;48.010;11.326;2023-01-16T15:48:06;3.75;;;2.13;;
21297;SDS011;10808;48.010;11.326;2023-01-16T15:50:54;8.98;;;3.38;;
21297;SDS011;10808;48.010;11.326;2023-01-16T15:53:31;5.25;;;2.08;;
21297;SDS011;10808;48.010;11.326;2023-01-16T15:56:03;6.00;;;2.40;;
21297;SDS011;10808;48.010;11.326;2023-01-16T15:58:31;5.97;;;3.22;;
21297;SDS011;10808;48.010;11.326;2023-01-16T16:00:59;9.05;;;3.25;;
21297;SDS011;10808;48.010;11.326;2023-01-16T16:03:28;5.68;;;3.30;;
21297;SDS011;10808;48.010;11.326;2023-01-16T16:06:21;10.18;;;4.88;;
21297;SDS011;10808;48.010;11.326;2023-01-16T16:08:49;7.88;;;4.93;;
21297;SDS011;10808;48.010;11.326;2023-01-16T16:11:21;18.77;;;8.68;;
21297;SDS011;10808;48.010;11.326;2023-01-16T16:17:27;40.72;;;22.30;;
21297;SDS011;10808;48.010;11.326;2023-01-16T16:23:02;27.77;;;16.85;;
21297;SDS011;10808;48.010;11.326;2023-01-16T16:25:40;26.92;;;13.95;;
21297;SDS011;10808;48.010;11.326;2023-01-16T16:28:19;25.20;;;14.80;;
21297;SDS011;10808;48.010;11.326;2023-01-16T16:30:46;25.13;;;13.02;;
21297;SDS011;10808;48.010;11.326;2023-01-16T16:33:19;25.58;;;12.35;;
21297;SDS011;10808;48.010;11.326;2023-01-16T16:35:49;23.60;;;11.63;;
21297;SDS011;10808;48.010;11.326;2023-01-16T16:44:23;19.63;;;10.50;;
21297;SDS011;10808;48.010;11.326;2023-01-16T16:47:00;22.30;;;11.85;;
21297;SDS011;10808;48.010;11.326;2023-01-16T16:49:27;25.15;;;13.32;;
21297;SDS011;10808;48.010;11.326;2023-01-16T16:52:12;26.47;;;13.53;;
21297;SDS011;10808;48.010;11.326;2023-01-16T16:54:55;24.08;;;12.60;;
21297;SDS011;10808;48.010;11.326;2023-01-16T16:57:22;34.92;;;20.13;;
21297;SDS011;10808;48.010;11.326;2023-01-16T16:59:50;37.50;;;24.67;;
21297;SDS011;10808;48.010;11.326;2023-01-16T17:02:18;37.28;;;23.30;;
21297;SDS011;10808;48.010;11.326;2023-01-16T17:04:46;52.92;;;30.55;;
21297;SDS011;10808;48.010;11.326;2023-01-16T17:07:12;74.55;;;41.80;;
21297;SDS011;10808;48.010;11.326;2023-01-16T17:09:38;47.25;;;27.45;;
21297;SDS011;10808;48.010;11.326;2023-01-16T17:12:17;44.00;;;25.63;;
21297;SDS011;10808;48.010;11.326;2023-01-16T17:14:46;39.67;;;23.00;;
21297;SDS011;10808;48.010;11.326;2023-01-16T17:17:12;38.70;;;22.20;;
21297;SDS011;10808;48.010;11.326;2023-01-16T17:19:41;37.05;;;21.75;;
21297;SDS011;10808;48.010;11.326;2023-01-16T17:22:09;35.58;;;21.42;;
21297;SDS011;10808;48.010;11.326;2023-01-16T17:24:36;33.72;;;20.70;;
21297;SDS011;10808;48.010;11.326;2023-01-16T17:27:03;32.40;;;18.90;;
21297;SDS011;10808;48.010;11.326;2023-01-16T17:29:35;30.45;;;18.48;;